sensor_id;sensor_type;location;lat;lon;timestamp;temperature;humidity
7411;DHT22;3747;48.628;9.058;2023-03-01T00:00:08;-4.00;99.90
7411;DHT22;3747;48.628;9.058;2023-03-01T00:02:35;-4.20;99.90
7411;DHT22;3747;48.628;9.058;2023-03-01T00:05:04;-4.30;99.90
7411;DHT22;3747;48.628;9.058;2023-03-01T00:07:32;-4.30;99.90
7411;DHT22;3747;48.628;9.058;2023-03-01T00:09:59;-4.40;99.90
7411;DHT22;3747;48.628;9.058;2023-03-01T00:12:26;-4.40;99.90
7411;DHT22;3747;48.628;9.058;2023-03-01T00:14:53;-4.50;99.90
7411;DHT22;3747;48.628;9.058;2023-03-01T00:17:19;-4.60;99.90
7411;DHT22;3747;48.628;9.058;2023-03-01T00:19:46;-4.70;99.90
7411;DHT22;3747;48.628;9.058;2023-03-01T00:22:14;-4.80;99.90
7411;DHT22;3747;48.628;9.058;2023-03-01T00:24:41;-4.80;99.90
7411;DHT22;3747;48.628;9.058;2023-03-01T00:27:08;-4.70;99.90
7411;DHT22;3747;48.628;9.058;2023-03-01T00:29:35;-4.60;99.90
7411;DHT22;3747;48.628;9.058;2023-03-01T00:32:01;-4.70;99.90
7411;DHT22;3747;48.628;9.058;2023-03-01T00:34:28;-4.70;99.90
7411;DHT22;3747;48.628;9.058;2023-03-01T00:36:55;-4.60;99.90
7411;DHT22;3747;48.628;9.058;2023-03-01T00:39:32;-4.40;99.90
7411;DHT22;3747;48.628;9.058;2023-03-01T00:41:59;-4.50;99.90
7411;DHT22;3747;48.628;9.058;2023-03-01T00:44:25;-4.50;99.90
7411;DHT22;3747;48.628;9.058;2023-03-01T00:46:53;-4.50;99.90
7411;DHT22;3747;48.628;9.058;2023-03-01T00:49:20;-4.60;99.90
7411;DHT22;3747;48.628;9.058;2023-03-01T00:51:47;-4.70;99.90
7411;DHT22;3747;48.628;9.058;2023-03-01T00:54:13;-4.60;99.90
7411;DHT22;3747;48.628;9.058;2023-03-01T00:56:41;-4.60;99.90
7411;DHT22;3747;48.628;9.058;2023-03-01T00:59:08;-4.50;99.90
7411;DHT22;3747;48.628;9.058;2023-03-01T01:01:35;-4.50;99.90
7411;DHT22;3747;48.628;9.058;2023-03-01T01:04:03;-4.40;99.90
7411;DHT22;3747;48.628;9.058;2023-03-01T01:06:32;-4.30;99.90
7411;DHT22;3747;48.628;9.058;2023-03-01T01:09:00;-4.20;99.90
7411;DHT22;3747;48.628;9.058;2023-03-01T01:11:29;-4.00;99.90
7411;DHT22;3747;48.628;9.058;2023-03-01T01:13:57;-4.00;99.90
7411;DHT22;3747;48.628;9.058;2023-03-01T01:16:25;-3.90;99.90
7411;DHT22;3747;48.628;9.058;2023-03-01T01:18:53;-3.80;99.90
7411;DHT22;3747;48.628;9.058;2023-03-01T01:21:22;-3.80;99.90
7411;DHT22;3747;48.628;9.058;2023-03-01T01:23:49;-3.80;99.90
7411;DHT22;3747;48.628;9.058;2023-03-01T01:26:19;-3.80;99.90
7411;DHT22;3747;48.628;9.058;2023-03-01T01:28:46;-3.90;99.90
7411;DHT22;3747;48.628;9.058;2023-03-01T01:31:15;-3.90;99.90
7411;DHT22;3747;48.628;9.058;2023-03-01T01:33:42;-3.90;99.90
7411;DHT22;3747;48.628;9.058;2023-03-01T01:36:09;-3.90;99.90
7411;DHT22;3747;48.628;9.058;2023-03-01T01:38:37;-4.10;99.90
7411;DHT22;3747;48.628;9.058;2023-03-01T01:41:05;-4.10;99.90
7411;DHT22;3747;48.628;9.058;2023-03-01T01:43:34;-4.10;99.90
7411;DHT22;3747;48.628;9.058;2023-03-01T01:46:03;-4.00;99.90
7411;DHT22;3747;48.628;9.058;2023-03-01T01:48:36;-3.80;99.90
7411;DHT22;3747;48.628;9.058;2023-03-01T01:51:08;-3.80;99.90
7411;DHT22;3747;48.628;9.058;2023-03-01T01:53:37;-3.90;99.90
7411;DHT22;3747;48.628;9.058;2023-03-01T01:56:08;-3.90;99.90
7411;DHT22;3747;48.628;9.058;2023-03-01T01:58:36;-3.90;99.90
7411;DHT22;3747;48.628;9.058;2023-03-01T02:01:03;-3.90;99.90
7411;DHT22;3747;48.628;9.058;2023-03-01T02:03:33;-3.90;99.90
7411;DHT22;3747;48.628;9.058;2023-03-01T02:06:06;-3.80;99.90
7411;DHT22;3747;48.628;9.058;2023-03-01T02:08:36;-3.80;99.90
7411;DHT22;3747;48.628;9.058;2023-03-01T02:11:04;-3.70;99.90
7411;DHT22;3747;48.628;9.058;2023-03-01T02:13:33;-3.60;99.90
7411;DHT22;3747;48.628;9.058;2023-03-01T02:16:03;-3.40;99.90
7411;DHT22;3747;48.628;9.058;2023-03-01T02:18:29;-3.30;99.90
7411;DHT22;3747;48.628;9.058;2023-03-01T02:21:07;-3.10;99.90
7411;DHT22;3747;48.628;9.058;2023-03-01T02:23:36;-3.00;99.90
7411;DHT22;3747;48.628;9.058;2023-03-01T02:26:07;-2.90;99.90
7411;DHT22;3747;48.628;9.058;2023-03-01T02:28:39;-2.80;99.90
7411;DHT22;3747;48.628;9.058;2023-03-01T02:31:08;-2.80;99.90
7411;DHT22;3747;48.628;9.058;2023-03-01T02:33:53;-2.80;99.90
7411;DHT22;3747;48.628;9.058;2023-03-01T02:36:22;-2.80;99.90
7411;DHT22;3747;48.628;9.058;2023-03-01T02:38:53;-2.80;99.90
7411;DHT22;3747;48.628;9.058;2023-03-01T02:41:23;-2.80;99.90
7411;DHT22;3747;48.628;9.058;2023-03-01T02:43:53;-2.80;99.90
7411;DHT22;3747;48.628;9.058;2023-03-01T02:46:21;-2.80;99.90
7411;DHT22;3747;48.628;9.058;2023-03-01T02:48:50;-2.80;99.90
7411;DHT22;3747;48.628;9.058;2023-03-01T02:51:27;-2.80;99.90
7411;DHT22;3747;48.628;9.058;2023-03-01T02:54:11;-2.80;99.90
7411;DHT22;3747;48.628;9.058;2023-03-01T02:56:38;-2.90;99.90
7411;DHT22;3747;48.628;9.058;2023-03-01T02:59:07;-2.80;99.90
7411;DHT22;3747;48.628;9.058;2023-03-01T03:01:35;-2.80;99.90
7411;DHT22;3747;48.628;9.058;2023-03-01T03:04:04;-2.80;99.90
7411;DHT22;3747;48.628;9.058;2023-03-01T03:06:31;-2.80;99.90
7411;DHT22;3747;48.628;9.058;2023-03-01T03:08:58;-2.80;99.90
7411;DHT22;3747;48.628;9.058;2023-03-01T03:11:25;-2.80;99.90
7411;DHT22;3747;48.628;9.058;2023-03-01T03:13:52;-2.70;99.90
7411;DHT22;3747;48.628;9.058;2023-03-01T03:16:20;-2.70;99.90
7411;DHT22;3747;48.628;9.058;2023-03-01T03:18:48;-2.70;99.90
7411;DHT22;3747;48.628;9.058;2023-03-01T03:21:15;-2.70;99.90
7411;DHT22;3747;48.628;9.058;2023-03-01T03:23:43;-2.70;99.90
7411;DHT22;3747;48.628;9.058;2023-03-01T03:26:09;-2.70;99.90
7411;DHT22;3747;48.628;9.058;2023-03-01T03:28:38;-2.70;99.90
7411;DHT22;3747;48.628;9.058;2023-03-01T03:31:06;-2.70;99.90
7411;DHT22;3747;48.628;9.058;2023-03-01T03:33:35;-2.70;99.90
7411;DHT22;3747;48.628;9.058;2023-03-01T03:36:02;-2.70;99.90
7411;DHT22;3747;48.628;9.058;2023-03-01T03:38:29;-2.70;99.90
7411;DHT22;3747;48.628;9.058;2023-03-01T03:41:01;-2.70;99.90
7411;DHT22;3747;48.628;9.058;2023-03-01T03:43:29;-2.70;99.90
7411;DHT22;3747;48.628;9.058;2023-03-01T03:45:56;-2.70;99.90
7411;DHT22;3747;48.628;9.058;2023-03-01T03:48:23;-2.70;99.90
7411;DHT22;3747;48.628;9.058;2023-03-01T03:50:54;-2.60;99.90
7411;DHT22;3747;48.628;9.058;2023-03-01T03:53:22;-2.60;99.90
7411;DHT22;3747;48.628;9.058;2023-03-01T03:55:49;-2.60;99.90
7411;DHT22;3747;48.628;9.058;2023-03-01T03:58:18;-2.60;99.90
7411;DHT22;3747;48.628;9.058;2023-03-01T04:00:47;-2.60;99.90
7411;DHT22;3747;48.628;9.058;2023-03-01T04:03:16;-2.60;99.90
7411;DHT22;3747;48.628;9.058;2023-03-01T04:05:44;-2.60;99.90
7411;DHT22;3747;48.628;9.058;2023-03-01T04:08:12;-2.60;99.90
7411;DHT22;3747;48.628;9.058;2023-03-01T04:10:41;-2.60;99.90
7411;DHT22;3747;48.628;9.058;2023-03-01T04:13:11;-2.50;99.90
7411;DHT22;3747;48.628;9.058;2023-03-01T04:15:38;-2.50;99.90
7411;DHT22;3747;48.628;9.058;2023-03-01T04:18:05;-2.50;99.90
7411;DHT22;3747;48.628;9.058;2023-03-01T04:20:34;-2.50;99.90
7411;DHT22;3747;48.628;9.058;2023-03-01T04:23:03;-2.50;99.90
7411;DHT22;3747;48.628;9.058;2023-03-01T04:25:37;-2.50;99.90
7411;DHT22;3747;48.628;9.058;2023-03-01T04:28:05;-2.50;99.90
7411;DHT22;3747;48.628;9.058;2023-03-01T04:30:32;-2.40;99.90
7411;DHT22;3747;48.628;9.058;2023-03-01T04:33:01;-2.40;99.90
7411;DHT22;3747;48.628;9.058;2023-03-01T04:35:28;-2.40;99.90
7411;DHT22;3747;48.628;9.058;2023-03-01T04:37:55;-2.40;99.90
7411;DHT22;3747;48.628;9.058;2023-03-01T04:40:22;-2.40;99.90
7411;DHT22;3747;48.628;9.058;2023-03-01T04:42:51;-2.40;99.90
7411;DHT22;3747;48.628;9.058;2023-03-01T04:45:17;-2.40;99.90
7411;DHT22;3747;48.628;9.058;2023-03-01T04:47:46;-2.40;99.90
7411;DHT22;3747;48.628;9.058;2023-03-01T04:50:14;-2.40;99.90
7411;DHT22;3747;48.628;9.058;2023-03-01T04:52:42;-2.50;99.90
7411;DHT22;3747;48.628;9.058;2023-03-01T04:55:09;-2.50;99.90
7411;DHT22;3747;48.628;9.058;2023-03-01T04:57:36;-2.50;99.90
7411;DHT22;3747;48.628;9.058;2023-03-01T05:00:07;-2.50;99.90
7411;DHT22;3747;48.628;9.058;2023-03-01T05:02:46;-2.40;99.90
7411;DHT22;3747;48.628;9.058;2023-03-01T05:05:14;-2.40;99.90
7411;DHT22;3747;48.628;9.058;2023-03-01T05:07:41;-2.40;99.90
7411;DHT22;3747;48.628;9.058;2023-03-01T05:10:09;-2.40;99.90
7411;DHT22;3747;48.628;9.058;2023-03-01T05:12:36;-2.50;99.90
7411;DHT22;3747;48.628;9.058;2023-03-01T05:15:06;-2.50;99.90
7411;DHT22;3747;48.628;9.058;2023-03-01T05:17:33;-2.50;99.90
7411;DHT22;3747;48.628;9.058;2023-03-01T05:20:00;-2.50;99.90
7411;DHT22;3747;48.628;9.058;2023-03-01T05:22:29;-2.50;99.90
7411;DHT22;3747;48.628;9.058;2023-03-01T05:24:56;-2.40;99.90
7411;DHT22;3747;48.628;9.058;2023-03-01T05:27:22;-2.40;99.90
7411;DHT22;3747;48.628;9.058;2023-03-01T05:29:49;-2.40;99.90
7411;DHT22;3747;48.628;9.058;2023-03-01T05:32:17;-2.40;99.90
7411;DHT22;3747;48.628;9.058;2023-03-01T05:34:44;-2.40;99.90
7411;DHT22;3747;48.628;9.058;2023-03-01T05:37:11;-2.30;99.90
7411;DHT22;3747;48.628;9.058;2023-03-01T05:39:38;-2.30;99.90
7411;DHT22;3747;48.628;9.058;2023-03-01T05:42:10;-2.30;99.90
7411;DHT22;3747;48.628;9.058;2023-03-01T05:44:37;-2.30;99.90
7411;DHT22;3747;48.628;9.058;2023-03-01T05:47:04;-2.30;99.90
7411;DHT22;3747;48.628;9.058;2023-03-01T05:49:33;-2.30;99.90
7411;DHT22;3747;48.628;9.058;2023-03-01T05:52:00;-2.30;99.90
7411;DHT22;3747;48.628;9.058;2023-03-01T05:54:26;-2.30;99.90
7411;DHT22;3747;48.628;9.058;2023-03-01T05:56:53;-2.30;99.90
7411;DHT22;3747;48.628;9.058;2023-03-01T05:59:20;-2.30;99.90
7411;DHT22;3747;48.628;9.058;2023-03-01T06:01:46;-2.30;99.90
7411;DHT22;3747;48.628;9.058;2023-03-01T06:04:13;-2.20;99.90
7411;DHT22;3747;48.628;9.058;2023-03-01T06:06:41;-2.20;99.90
7411;DHT22;3747;48.628;9.058;2023-03-01T06:09:08;-2.20;99.90
7411;DHT22;3747;48.628;9.058;2023-03-01T06:11:35;-2.10;99.90
7411;DHT22;3747;48.628;9.058;2023-03-01T06:14:03;-2.10;99.90
7411;DHT22;3747;48.628;9.058;2023-03-01T06:16:29;-2.00;99.90
7411;DHT22;3747;48.628;9.058;2023-03-01T06:18:56;-2.00;99.90
7411;DHT22;3747;48.628;9.058;2023-03-01T06:21:23;-2.00;99.90
7411;DHT22;3747;48.628;9.058;2023-03-01T06:23:51;-2.00;99.90
7411;DHT22;3747;48.628;9.058;2023-03-01T06:26:18;-2.00;99.90
7411;DHT22;3747;48.628;9.058;2023-03-01T06:28:44;-2.00;99.90
7411;DHT22;3747;48.628;9.058;2023-03-01T06:31:12;-1.90;99.90
7411;DHT22;3747;48.628;9.058;2023-03-01T06:33:38;-1.80;99.90
7411;DHT22;3747;48.628;9.058;2023-03-01T06:36:06;-1.70;99.90
7411;DHT22;3747;48.628;9.058;2023-03-01T06:38:33;-1.60;99.90
7411;DHT22;3747;48.628;9.058;2023-03-01T06:41:01;-1.50;99.90
7411;DHT22;3747;48.628;9.058;2023-03-01T06:43:27;-1.50;99.90
7411;DHT22;3747;48.628;9.058;2023-03-01T06:45:54;-1.40;99.90
7411;DHT22;3747;48.628;9.058;2023-03-01T06:48:21;-1.40;99.90
7411;DHT22;3747;48.628;9.058;2023-03-01T06:50:48;-1.40;99.90
7411;DHT22;3747;48.628;9.058;2023-03-01T06:53:14;-1.40;99.90
7411;DHT22;3747;48.628;9.058;2023-03-01T06:55:41;-1.40;99.90
7411;DHT22;3747;48.628;9.058;2023-03-01T06:58:10;-1.30;99.90
7411;DHT22;3747;48.628;9.058;2023-03-01T07:00:37;-1.30;99.90
7411;DHT22;3747;48.628;9.058;2023-03-01T07:03:06;-1.30;99.90
7411;DHT22;3747;48.628;9.058;2023-03-01T07:05:33;-1.30;99.90
7411;DHT22;3747;48.628;9.058;2023-03-01T07:08:00;-1.30;99.90
7411;DHT22;3747;48.628;9.058;2023-03-01T07:10:27;-1.30;99.90
7411;DHT22;3747;48.628;9.058;2023-03-01T07:12:55;-1.30;99.90
7411;DHT22;3747;48.628;9.058;2023-03-01T07:15:23;-1.30;99.90
7411;DHT22;3747;48.628;9.058;2023-03-01T07:17:50;-1.20;99.90
7411;DHT22;3747;48.628;9.058;2023-03-01T07:20:18;-1.20;99.90
7411;DHT22;3747;48.628;9.058;2023-03-01T07:22:47;-1.10;99.90
7411;DHT22;3747;48.628;9.058;2023-03-01T07:25:14;-1.10;99.90
7411;DHT22;3747;48.628;9.058;2023-03-01T07:27:41;-1.00;99.90
7411;DHT22;3747;48.628;9.058;2023-03-01T07:30:09;-1.00;99.90
7411;DHT22;3747;48.628;9.058;2023-03-01T07:32:37;-0.90;99.90
7411;DHT22;3747;48.628;9.058;2023-03-01T07:35:04;-0.50;99.90
7411;DHT22;3747;48.628;9.058;2023-03-01T07:37:31;-0.10;99.90
7411;DHT22;3747;48.628;9.058;2023-03-01T07:39:58;0.40;99.90
7411;DHT22;3747;48.628;9.058;2023-03-01T07:42:25;0.60;99.90
7411;DHT22;3747;48.628;9.058;2023-03-01T07:44:51;0.80;99.90
7411;DHT22;3747;48.628;9.058;2023-03-01T07:47:18;1.00;99.90
7411;DHT22;3747;48.628;9.058;2023-03-01T07:49:46;1.30;99.90
7411;DHT22;3747;48.628;9.058;2023-03-01T07:52:13;1.50;99.90
7411;DHT22;3747;48.628;9.058;2023-03-01T07:54:42;1.70;99.90
7411;DHT22;3747;48.628;9.058;2023-03-01T07:57:09;1.70;99.90
7411;DHT22;3747;48.628;9.058;2023-03-01T07:59:36;1.90;99.90
7411;DHT22;3747;48.628;9.058;2023-03-01T08:02:02;2.10;99.90
7411;DHT22;3747;48.628;9.058;2023-03-01T08:04:29;2.30;99.90
7411;DHT22;3747;48.628;9.058;2023-03-01T08:06:57;2.70;99.90
7411;DHT22;3747;48.628;9.058;2023-03-01T08:09:24;2.80;99.90
7411;DHT22;3747;48.628;9.058;2023-03-01T08:11:50;2.70;99.90
7411;DHT22;3747;48.628;9.058;2023-03-01T08:14:17;3.00;99.90
7411;DHT22;3747;48.628;9.058;2023-03-01T08:16:44;3.20;99.90
7411;DHT22;3747;48.628;9.058;2023-03-01T08:19:11;3.20;99.90
7411;DHT22;3747;48.628;9.058;2023-03-01T08:21:39;3.20;99.90
7411;DHT22;3747;48.628;9.058;2023-03-01T08:24:07;3.10;99.90
7411;DHT22;3747;48.628;9.058;2023-03-01T08:26:35;3.20;99.90
7411;DHT22;3747;48.628;9.058;2023-03-01T08:29:02;3.30;99.90
7411;DHT22;3747;48.628;9.058;2023-03-01T08:31:32;3.50;99.90
7411;DHT22;3747;48.628;9.058;2023-03-01T08:34:02;3.70;99.90
7411;DHT22;3747;48.628;9.058;2023-03-01T08:36:30;3.40;99.90
7411;DHT22;3747;48.628;9.058;2023-03-01T08:38:58;3.80;99.90
7411;DHT22;3747;48.628;9.058;2023-03-01T08:41:26;3.90;99.90
7411;DHT22;3747;48.628;9.058;2023-03-01T08:43:54;4.00;99.90
7411;DHT22;3747;48.628;9.058;2023-03-01T08:46:24;4.10;99.90
7411;DHT22;3747;48.628;9.058;2023-03-01T08:48:51;4.00;99.90
7411;DHT22;3747;48.628;9.058;2023-03-01T08:51:19;4.20;99.90
7411;DHT22;3747;48.628;9.058;2023-03-01T08:53:47;4.30;99.90
7411;DHT22;3747;48.628;9.058;2023-03-01T08:56:15;4.40;99.90
7411;DHT22;3747;48.628;9.058;2023-03-01T08:58:45;4.90;99.90
7411;DHT22;3747;48.628;9.058;2023-03-01T09:01:14;4.50;99.90
7411;DHT22;3747;48.628;9.058;2023-03-01T09:03:41;4.80;99.90
7411;DHT22;3747;48.628;9.058;2023-03-01T09:06:09;5.20;99.90
7411;DHT22;3747;48.628;9.058;2023-03-01T09:08:36;5.00;99.90
7411;DHT22;3747;48.628;9.058;2023-03-01T09:11:03;5.20;99.90
7411;DHT22;3747;48.628;9.058;2023-03-01T09:13:30;5.10;99.90
7411;DHT22;3747;48.628;9.058;2023-03-01T09:16:00;4.80;99.90
7411;DHT22;3747;48.628;9.058;2023-03-01T09:18:27;5.20;99.90
7411;DHT22;3747;48.628;9.058;2023-03-01T09:21:00;4.70;99.90
7411;DHT22;3747;48.628;9.058;2023-03-01T09:23:26;5.00;99.90
7411;DHT22;3747;48.628;9.058;2023-03-01T09:25:53;5.10;99.90
7411;DHT22;3747;48.628;9.058;2023-03-01T09:28:20;5.10;99.90
7411;DHT22;3747;48.628;9.058;2023-03-01T09:30:48;5.30;99.90
7411;DHT22;3747;48.628;9.058;2023-03-01T09:33:16;5.00;99.90
7411;DHT22;3747;48.628;9.058;2023-03-01T09:35:43;4.70;99.90
7411;DHT22;3747;48.628;9.058;2023-03-01T09:38:12;4.80;99.90
7411;DHT22;3747;48.628;9.058;2023-03-01T09:40:42;4.70;99.90
7411;DHT22;3747;48.628;9.058;2023-03-01T09:43:18;4.20;99.90
7411;DHT22;3747;48.628;9.058;2023-03-01T09:45:47;4.10;99.90
7411;DHT22;3747;48.628;9.058;2023-03-01T09:48:18;3.70;99.90
7411;DHT22;3747;48.628;9.058;2023-03-01T09:50:47;3.60;99.90
7411;DHT22;3747;48.628;9.058;2023-03-01T09:53:16;3.20;99.90
7411;DHT22;3747;48.628;9.058;2023-03-01T09:55:46;3.00;99.90
7411;DHT22;3747;48.628;9.058;2023-03-01T09:58:34;3.00;99.90
7411;DHT22;3747;48.628;9.058;2023-03-01T10:01:14;3.10;99.90
7411;DHT22;3747;48.628;9.058;2023-03-01T10:03:52;3.20;99.90
7411;DHT22;3747;48.628;9.058;2023-03-01T10:06:22;3.10;99.90
7411;DHT22;3747;48.628;9.058;2023-03-01T10:08:54;3.10;99.90
7411;DHT22;3747;48.628;9.058;2023-03-01T10:11:25;3.00;99.90
7411;DHT22;3747;48.628;9.058;2023-03-01T10:13:59;3.10;99.90
7411;DHT22;3747;48.628;9.058;2023-03-01T10:16:43;3.20;99.90
7411;DHT22;3747;48.628;9.058;2023-03-01T10:19:16;3.20;99.90
7411;DHT22;3747;48.628;9.058;2023-03-01T10:21:45;3.30;99.90
7411;DHT22;3747;48.628;9.058;2023-03-01T10:24:15;3.30;99.90
7411;DHT22;3747;48.628;9.058;2023-03-01T10:26:53;3.40;99.90
7411;DHT22;3747;48.628;9.058;2023-03-01T10:29:23;3.40;99.90
7411;DHT22;3747;48.628;9.058;2023-03-01T10:31:52;3.30;99.90
7411;DHT22;3747;48.628;9.058;2023-03-01T10:34:27;3.10;99.90
7411;DHT22;3747;48.628;9.058;2023-03-01T10:36:57;3.20;99.90
7411;DHT22;3747;48.628;9.058;2023-03-01T10:39:26;3.20;99.90
7411;DHT22;3747;48.628;9.058;2023-03-01T10:41:56;3.20;99.90
7411;DHT22;3747;48.628;9.058;2023-03-01T10:44:42;3.30;99.90
7411;DHT22;3747;48.628;9.058;2023-03-01T10:47:18;3.40;99.90
7411;DHT22;3747;48.628;9.058;2023-03-01T10:49:59;3.50;99.90
7411;DHT22;3747;48.628;9.058;2023-03-01T10:52:30;3.50;99.90
7411;DHT22;3747;48.628;9.058;2023-03-01T10:54:58;3.20;99.90
7411;DHT22;3747;48.628;9.058;2023-03-01T10:57:32;3.10;99.90
7411;DHT22;3747;48.628;9.058;2023-03-01T11:00:15;3.40;99.90
7411;DHT22;3747;48.628;9.058;2023-03-01T11:02:47;3.60;99.90
7411;DHT22;3747;48.628;9.058;2023-03-01T11:05:20;3.60;99.90
7411;DHT22;3747;48.628;9.058;2023-03-01T11:07:51;3.70;99.90
7411;DHT22;3747;48.628;9.058;2023-03-01T11:10:20;4.00;99.90
7411;DHT22;3747;48.628;9.058;2023-03-01T11:12:47;4.10;99.90
7411;DHT22;3747;48.628;9.058;2023-03-01T11:15:26;4.10;99.90
7411;DHT22;3747;48.628;9.058;2023-03-01T11:17:53;4.10;99.90
7411;DHT22;3747;48.628;9.058;2023-03-01T11:20:27;4.20;99.90
7411;DHT22;3747;48.628;9.058;2023-03-01T11:22:59;4.10;99.90
7411;DHT22;3747;48.628;9.058;2023-03-01T11:25:31;4.20;99.90
7411;DHT22;3747;48.628;9.058;2023-03-01T11:28:02;4.40;99.90
7411;DHT22;3747;48.628;9.058;2023-03-01T11:30:34;4.50;99.90
7411;DHT22;3747;48.628;9.058;2023-03-01T11:33:11;4.40;99.90
7411;DHT22;3747;48.628;9.058;2023-03-01T11:35:45;4.40;99.90
7411;DHT22;3747;48.628;9.058;2023-03-01T11:38:18;4.50;99.90
7411;DHT22;3747;48.628;9.058;2023-03-01T11:40:51;4.60;99.90
7411;DHT22;3747;48.628;9.058;2023-03-01T11:43:23;4.60;99.90
7411;DHT22;3747;48.628;9.058;2023-03-01T11:46:36;4.80;99.90
7411;DHT22;3747;48.628;9.058;2023-03-01T11:49:44;5.00;99.90
7411;DHT22;3747;48.628;9.058;2023-03-01T11:52:24;5.00;99.90
7411;DHT22;3747;48.628;9.058;2023-03-01T11:55:07;5.00;99.90
7411;DHT22;3747;48.628;9.058;2023-03-01T11:57:46;5.20;99.90
7411;DHT22;3747;48.628;9.058;2023-03-01T12:00:26;5.40;99.90
7411;DHT22;3747;48.628;9.058;2023-03-01T12:06:17;5.70;99.90
7411;DHT22;3747;48.628;9.058;2023-03-01T12:08:59;6.00;99.90
7411;DHT22;3747;48.628;9.058;2023-03-01T12:11:39;6.00;99.90
7411;DHT22;3747;48.628;9.058;2023-03-01T12:14:30;6.20;99.90
7411;DHT22;3747;48.628;9.058;2023-03-01T12:17:11;6.50;99.90
7411;DHT22;3747;48.628;9.058;2023-03-01T12:19:55;6.80;99.90
7411;DHT22;3747;48.628;9.058;2023-03-01T12:22:30;7.20;99.90
7411;DHT22;3747;48.628;9.058;2023-03-01T12:25:16;6.90;99.90
7411;DHT22;3747;48.628;9.058;2023-03-01T12:28:08;7.50;99.90
7411;DHT22;3747;48.628;9.058;2023-03-01T12:30:51;8.00;99.90
7411;DHT22;3747;48.628;9.058;2023-03-01T12:33:24;8.30;99.90
7411;DHT22;3747;48.628;9.058;2023-03-01T12:36:10;8.40;99.90
7411;DHT22;3747;48.628;9.058;2023-03-01T12:38:41;9.20;99.90
7411;DHT22;3747;48.628;9.058;2023-03-01T12:41:27;9.30;99.90
7411;DHT22;3747;48.628;9.058;2023-03-01T12:44:04;9.80;99.90
7411;DHT22;3747;48.628;9.058;2023-03-01T12:46:46;9.20;99.90
7411;DHT22;3747;48.628;9.058;2023-03-01T12:49:23;9.20;99.90
7411;DHT22;3747;48.628;9.058;2023-03-01T12:52:03;9.10;99.90
7411;DHT22;3747;48.628;9.058;2023-03-01T12:54:37;8.60;99.90
7411;DHT22;3747;48.628;9.058;2023-03-01T12:57:11;9.10;99.90
7411;DHT22;3747;48.628;9.058;2023-03-01T12:59:42;9.60;99.90
7411;DHT22;3747;48.628;9.058;2023-03-01T13:02:17;9.20;99.90
7411;DHT22;3747;48.628;9.058;2023-03-01T13:04:58;9.40;99.90
7411;DHT22;3747;48.628;9.058;2023-03-01T13:07:31;9.70;99.90
7411;DHT22;3747;48.628;9.058;2023-03-01T13:10:11;9.70;99.90
7411;DHT22;3747;48.628;9.058;2023-03-01T13:12:45;9.90;99.90
7411;DHT22;3747;48.628;9.058;2023-03-01T13:15:34;9.50;99.90
7411;DHT22;3747;48.628;9.058;2023-03-01T13:18:03;9.20;99.90
7411;DHT22;3747;48.628;9.058;2023-03-01T13:20:34;9.70;99.90
7411;DHT22;3747;48.628;9.058;2023-03-01T13:23:04;10.30;99.80
7411;DHT22;3747;48.628;9.058;2023-03-01T13:25:32;10.50;99.40
7411;DHT22;3747;48.628;9.058;2023-03-01T13:34:46;10.70;98.60
7411;DHT22;3747;48.628;9.058;2023-03-01T13:37:31;10.10;98.50
7411;DHT22;3747;48.628;9.058;2023-03-01T13:40:01;10.10;99.00
7411;DHT22;3747;48.628;9.058;2023-03-01T13:42:36;9.80;99.90
7411;DHT22;3747;48.628;9.058;2023-03-01T13:45:14;9.40;99.90
7411;DHT22;3747;48.628;9.058;2023-03-01T13:47:44;9.60;99.70
7411;DHT22;3747;48.628;9.058;2023-03-01T13:50:20;9.30;99.70
7411;DHT22;3747;48.628;9.058;2023-03-01T13:52:52;10.00;99.50
7411;DHT22;3747;48.628;9.058;2023-03-01T13:55:22;10.60;99.30
7411;DHT22;3747;48.628;9.058;2023-03-01T13:57:53;10.80;98.40
7411;DHT22;3747;48.628;9.058;2023-03-01T14:00:29;10.30;98.90
7411;DHT22;3747;48.628;9.058;2023-03-01T14:03:04;10.20;98.70
7411;DHT22;3747;48.628;9.058;2023-03-01T14:05:33;10.40;98.70
7411;DHT22;3747;48.628;9.058;2023-03-01T14:08:01;10.30;98.70
7411;DHT22;3747;48.628;9.058;2023-03-01T14:10:35;10.80;98.60
7411;DHT22;3747;48.628;9.058;2023-03-01T14:13:10;10.70;98.20
7411;DHT22;3747;48.628;9.058;2023-03-01T14:15:46;10.40;99.50
7411;DHT22;3747;48.628;9.058;2023-03-01T14:18:21;10.60;98.50
7411;DHT22;3747;48.628;9.058;2023-03-01T14:20:52;11.00;97.80
7411;DHT22;3747;48.628;9.058;2023-03-01T14:23:20;10.90;98.30
7411;DHT22;3747;48.628;9.058;2023-03-01T14:25:48;10.40;98.10
7411;DHT22;3747;48.628;9.058;2023-03-01T14:28:18;10.70;98.10
7411;DHT22;3747;48.628;9.058;2023-03-01T14:30:47;10.50;97.70
7411;DHT22;3747;48.628;9.058;2023-03-01T14:33:23;10.60;98.10
7411;DHT22;3747;48.628;9.058;2023-03-01T14:35:57;10.70;97.90
7411;DHT22;3747;48.628;9.058;2023-03-01T14:38:30;10.50;97.90
7411;DHT22;3747;48.628;9.058;2023-03-01T14:41:00;10.50;97.60
7411;DHT22;3747;48.628;9.058;2023-03-01T14:43:29;10.80;97.70
7411;DHT22;3747;48.628;9.058;2023-03-01T14:45:56;11.00;97.30
7411;DHT22;3747;48.628;9.058;2023-03-01T14:48:23;10.80;97.00
7411;DHT22;3747;48.628;9.058;2023-03-01T14:50:51;10.40;97.60
7411;DHT22;3747;48.628;9.058;2023-03-01T14:53:22;10.40;97.70
7411;DHT22;3747;48.628;9.058;2023-03-01T14:55:52;10.40;97.60
7411;DHT22;3747;48.628;9.058;2023-03-01T14:58:21;10.10;97.90
7411;DHT22;3747;48.628;9.058;2023-03-01T15:00:50;9.70;98.40
7411;DHT22;3747;48.628;9.058;2023-03-01T15:03:24;10.00;97.50
7411;DHT22;3747;48.628;9.058;2023-03-01T15:05:51;9.90;98.10
7411;DHT22;3747;48.628;9.058;2023-03-01T15:08:22;9.80;98.50
7411;DHT22;3747;48.628;9.058;2023-03-01T15:10:58;9.90;98.60
7411;DHT22;3747;48.628;9.058;2023-03-01T15:13:28;9.60;98.90
7411;DHT22;3747;48.628;9.058;2023-03-01T15:16:02;9.70;98.40
7411;DHT22;3747;48.628;9.058;2023-03-01T15:18:30;9.50;98.40
7411;DHT22;3747;48.628;9.058;2023-03-01T15:21:05;9.60;98.70
7411;DHT22;3747;48.628;9.058;2023-03-01T15:23:34;9.70;98.80
7411;DHT22;3747;48.628;9.058;2023-03-01T15:26:02;9.90;98.10
7411;DHT22;3747;48.628;9.058;2023-03-01T15:28:31;9.60;98.20
7411;DHT22;3747;48.628;9.058;2023-03-01T15:31:04;9.40;98.60
7411;DHT22;3747;48.628;9.058;2023-03-01T15:33:35;9.60;99.20
7411;DHT22;3747;48.628;9.058;2023-03-01T15:38:55;9.60;98.30
7411;DHT22;3747;48.628;9.058;2023-03-01T15:41:24;9.70;99.00
7411;DHT22;3747;48.628;9.058;2023-03-01T15:43:51;9.50;98.60
7411;DHT22;3747;48.628;9.058;2023-03-01T15:46:24;9.30;98.60
7411;DHT22;3747;48.628;9.058;2023-03-01T15:48:53;9.20;98.90
7411;DHT22;3747;48.628;9.058;2023-03-01T15:51:27;8.90;99.30
7411;DHT22;3747;48.628;9.058;2023-03-01T15:53:59;9.00;99.10
7411;DHT22;3747;48.628;9.058;2023-03-01T15:56:26;8.90;99.00
7411;DHT22;3747;48.628;9.058;2023-03-01T15:58:56;8.70;99.10
7411;DHT22;3747;48.628;9.058;2023-03-01T16:01:23;8.60;99.30
7411;DHT22;3747;48.628;9.058;2023-03-01T16:03:50;8.40;99.30
7411;DHT22;3747;48.628;9.058;2023-03-01T16:06:17;8.10;99.60
7411;DHT22;3747;48.628;9.058;2023-03-01T16:08:43;8.00;99.80
7411;DHT22;3747;48.628;9.058;2023-03-01T16:11:14;7.70;99.90
7411;DHT22;3747;48.628;9.058;2023-03-01T16:13:42;7.60;99.90
7411;DHT22;3747;48.628;9.058;2023-03-01T16:16:10;7.70;99.90
7411;DHT22;3747;48.628;9.058;2023-03-01T16:18:40;7.40;99.90
7411;DHT22;3747;48.628;9.058;2023-03-01T16:21:12;7.20;99.90
7411;DHT22;3747;48.628;9.058;2023-03-01T16:23:39;7.00;99.90
7411;DHT22;3747;48.628;9.058;2023-03-01T16:26:07;6.70;99.90
7411;DHT22;3747;48.628;9.058;2023-03-01T16:28:36;6.70;99.90
7411;DHT22;3747;48.628;9.058;2023-03-01T16:31:06;6.70;99.90
7411;DHT22;3747;48.628;9.058;2023-03-01T16:33:33;6.60;99.90
7411;DHT22;3747;48.628;9.058;2023-03-01T16:36:00;6.30;99.90
7411;DHT22;3747;48.628;9.058;2023-03-01T16:38:28;6.00;99.90
7411;DHT22;3747;48.628;9.058;2023-03-01T16:40:54;5.50;99.90